sensor_id;sensor_type;location;lat;lon;timestamp;P1;durP1;ratioP1;P2;durP2;ratioP2
7156;SDS011;3620;49.862;8.758;2023-02-28T00:01:13;1.70;;;1.60;;
7156;SDS011;3620;49.862;8.758;2023-02-28T00:03:40;1.57;;;1.50;;
7156;SDS011;3620;49.862;8.758;2023-02-28T00:06:07;1.60;;;1.50;;
7156;SDS011;3620;49.862;8.758;2023-02-28T00:08:35;1.80;;;1.70;;
7156;SDS011;3620;49.862;8.758;2023-02-28T00:11:03;1.70;;;1.60;;
7156;SDS011;3620;49.862;8.758;2023-02-28T00:13:31;1.67;;;1.57;;
7156;SDS011;3620;49.862;8.758;2023-02-28T00:16:00;1.70;;;1.60;;
7156;SDS011;3620;49.862;8.758;2023-02-28T00:18:28;1.77;;;1.67;;
7156;SDS011;3620;49.862;8.758;2023-02-28T00:20:54;1.70;;;1.60;;
7156;SDS011;3620;49.862;8.758;2023-02-28T00:23:21;1.70;;;1.60;;
7156;SDS011;3620;49.862;8.758;2023-02-28T00:25:47;1.60;;;1.50;;
7156;SDS011;3620;49.862;8.758;2023-02-28T00:28:15;1.70;;;1.60;;
7156;SDS011;3620;49.862;8.758;2023-02-28T00:30:42;1.80;;;1.70;;
7156;SDS011;3620;49.862;8.758;2023-02-28T00:33:08;1.73;;;1.63;;
7156;SDS011;3620;49.862;8.758;2023-02-28T00:35:35;1.60;;;1.50;;
7156;SDS011;3620;49.862;8.758;2023-02-28T00:38:02;1.70;;;1.60;;
7156;SDS011;3620;49.862;8.758;2023-02-28T00:40:28;1.90;;;1.80;;
7156;SDS011;3620;49.862;8.758;2023-02-28T00:42:55;1.90;;;1.80;;
7156;SDS011;3620;49.862;8.758;2023-02-28T00:45:23;1.70;;;1.60;;
7156;SDS011;3620;49.862;8.758;2023-02-28T00:47:49;1.83;;;1.73;;
7156;SDS011;3620;49.862;8.758;2023-02-28T00:50:16;1.80;;;1.70;;
7156;SDS011;3620;49.862;8.758;2023-02-28T00:52:43;1.80;;;1.70;;
7156;SDS011;3620;49.862;8.758;2023-02-28T00:55:09;1.90;;;1.80;;
7156;SDS011;3620;49.862;8.758;2023-02-28T00:57:36;1.60;;;1.50;;
7156;SDS011;3620;49.862;8.758;2023-02-28T01:00:03;1.80;;;1.70;;
7156;SDS011;3620;49.862;8.758;2023-02-28T01:02:32;1.70;;;1.60;;
7156;SDS011;3620;49.862;8.758;2023-02-28T01:04:59;1.70;;;1.60;;
7156;SDS011;3620;49.862;8.758;2023-02-28T01:07:26;1.70;;;1.60;;
7156;SDS011;3620;49.862;8.758;2023-02-28T01:09:52;1.70;;;1.60;;
7156;SDS011;3620;49.862;8.758;2023-02-28T01:12:19;1.80;;;1.70;;
7156;SDS011;3620;49.862;8.758;2023-02-28T01:14:45;1.60;;;1.50;;
7156;SDS011;3620;49.862;8.758;2023-02-28T01:17:12;1.70;;;1.60;;
7156;SDS011;3620;49.862;8.758;2023-02-28T01:19:39;1.80;;;1.70;;
7156;SDS011;3620;49.862;8.758;2023-02-28T01:22:06;1.80;;;1.70;;
7156;SDS011;3620;49.862;8.758;2023-02-28T01:24:33;1.93;;;1.83;;
7156;SDS011;3620;49.862;8.758;2023-02-28T01:26:59;1.73;;;1.63;;
7156;SDS011;3620;49.862;8.758;2023-02-28T01:29:26;1.43;;;1.40;;
7156;SDS011;3620;49.862;8.758;2023-02-28T01:31:52;1.80;;;1.70;;
7156;SDS011;3620;49.862;8.758;2023-02-28T01:34:19;1.80;;;1.70;;
7156;SDS011;3620;49.862;8.758;2023-02-28T01:36:47;1.73;;;1.63;;
7156;SDS011;3620;49.862;8.758;2023-02-28T01:39:13;1.60;;;1.50;;
7156;SDS011;3620;49.862;8.758;2023-02-28T01:41:40;1.73;;;1.63;;
7156;SDS011;3620;49.862;8.758;2023-02-28T01:44:07;1.90;;;1.80;;
7156;SDS011;3620;49.862;8.758;2023-02-28T01:46:55;1.67;;;1.57;;
7156;SDS011;3620;49.862;8.758;2023-02-28T01:49:21;1.60;;;1.50;;
7156;SDS011;3620;49.862;8.758;2023-02-28T01:51:48;1.60;;;1.50;;
7156;SDS011;3620;49.862;8.758;2023-02-28T01:54:20;1.90;;;1.80;;
7156;SDS011;3620;49.862;8.758;2023-02-28T01:56:51;2.00;;;1.90;;
7156;SDS011;3620;49.862;8.758;2023-02-28T01:59:22;1.70;;;1.60;;
7156;SDS011;3620;49.862;8.758;2023-02-28T02:01:53;1.80;;;1.70;;
7156;SDS011;3620;49.862;8.758;2023-02-28T02:04:21;1.43;;;1.43;;
7156;SDS011;3620;49.862;8.758;2023-02-28T02:06:52;1.70;;;1.60;;
7156;SDS011;3620;49.862;8.758;2023-02-28T02:09:20;1.77;;;1.67;;
7156;SDS011;3620;49.862;8.758;2023-02-28T02:11:48;1.80;;;1.70;;
7156;SDS011;3620;49.862;8.758;2023-02-28T02:14:18;1.80;;;1.70;;
7156;SDS011;3620;49.862;8.758;2023-02-28T02:17:03;1.70;;;1.60;;
7156;SDS011;3620;49.862;8.758;2023-02-28T02:25:41;1.40;;;1.40;;
7156;SDS011;3620;49.862;8.758;2023-02-28T02:28:17;1.70;;;1.60;;
7156;SDS011;3620;49.862;8.758;2023-02-28T02:31:16;1.80;;;1.70;;
7156;SDS011;3620;49.862;8.758;2023-02-28T02:37:00;1.40;;;1.40;;
7156;SDS011;3620;49.862;8.758;2023-02-28T02:39:37;2.00;;;1.90;;
7156;SDS011;3620;49.862;8.758;2023-02-28T02:42:14;1.70;;;1.60;;
7156;SDS011;3620;49.862;8.758;2023-02-28T02:44:45;1.87;;;1.77;;
7156;SDS011;3620;49.862;8.758;2023-02-28T02:47:15;1.80;;;1.70;;
7156;SDS011;3620;49.862;8.758;2023-02-28T02:49:47;1.80;;;1.70;;
7156;SDS011;3620;49.862;8.758;2023-02-28T02:52:18;1.70;;;1.60;;
7156;SDS011;3620;49.862;8.758;2023-02-28T02:54:50;1.90;;;1.80;;
7156;SDS011;3620;49.862;8.758;2023-02-28T02:57:21;1.70;;;1.60;;
7156;SDS011;3620;49.862;8.758;2023-02-28T02:59:52;1.90;;;1.80;;
7156;SDS011;3620;49.862;8.758;2023-02-28T03:02:21;1.80;;;1.70;;
7156;SDS011;3620;49.862;8.758;2023-02-28T03:04:53;1.80;;;1.70;;
7156;SDS011;3620;49.862;8.758;2023-02-28T03:07:25;1.73;;;1.63;;
7156;SDS011;3620;49.862;8.758;2023-02-28T03:09:52;1.70;;;1.60;;
7156;SDS011;3620;49.862;8.758;2023-02-28T03:12:20;1.80;;;1.70;;
7156;SDS011;3620;49.862;8.758;2023-02-28T03:14:55;1.80;;;1.70;;
7156;SDS011;3620;49.862;8.758;2023-02-28T03:17:30;1.80;;;1.70;;
7156;SDS011;3620;49.862;8.758;2023-02-28T03:20:14;1.60;;;1.50;;
7156;SDS011;3620;49.862;8.758;2023-02-28T03:22:51;1.70;;;1.60;;
7156;SDS011;3620;49.862;8.758;2023-02-28T03:25:24;1.90;;;1.80;;
7156;SDS011;3620;49.862;8.758;2023-02-28T03:28:00;1.90;;;1.80;;
7156;SDS011;3620;49.862;8.758;2023-02-28T03:30:35;1.80;;;1.70;;
7156;SDS011;3620;49.862;8.758;2023-02-28T03:33:06;1.70;;;1.60;;
7156;SDS011;3620;49.862;8.758;2023-02-28T03:35:39;1.97;;;1.87;;
7156;SDS011;3620;49.862;8.758;2023-02-28T03:38:10;1.70;;;1.60;;
7156;SDS011;3620;49.862;8.758;2023-02-28T03:40:41;1.77;;;1.67;;
7156;SDS011;3620;49.862;8.758;2023-02-28T03:43:13;1.70;;;1.60;;
7156;SDS011;3620;49.862;8.758;2023-02-28T03:45:44;1.50;;;1.50;;
7156;SDS011;3620;49.862;8.758;2023-02-28T03:48:13;1.83;;;1.73;;
7156;SDS011;3620;49.862;8.758;2023-02-28T03:50:47;1.90;;;1.80;;
7156;SDS011;3620;49.862;8.758;2023-02-28T03:53:19;1.80;;;1.70;;
7156;SDS011;3620;49.862;8.758;2023-02-28T03:55:49;1.77;;;1.67;;
7156;SDS011;3620;49.862;8.758;2023-02-28T03:58:20;2.00;;;1.90;;
7156;SDS011;3620;49.862;8.758;2023-02-28T04:00:54;1.83;;;1.73;;
7156;SDS011;3620;49.862;8.758;2023-02-28T04:03:25;2.00;;;1.90;;
7156;SDS011;3620;49.862;8.758;2023-02-28T04:05:53;1.80;;;1.70;;
7156;SDS011;3620;49.862;8.758;2023-02-28T04:08:21;1.70;;;1.60;;
7156;SDS011;3620;49.862;8.758;2023-02-28T04:10:50;1.93;;;1.83;;
7156;SDS011;3620;49.862;8.758;2023-02-28T04:13:23;1.87;;;1.77;;
7156;SDS011;3620;49.862;8.758;2023-02-28T04:15:50;1.80;;;1.70;;
7156;SDS011;3620;49.862;8.758;2023-02-28T04:18:16;2.00;;;1.90;;
7156;SDS011;3620;49.862;8.758;2023-02-28T04:20:43;1.97;;;1.87;;
7156;SDS011;3620;49.862;8.758;2023-02-28T04:23:11;2.17;;;2.07;;
7156;SDS011;3620;49.862;8.758;2023-02-28T04:25:37;1.80;;;1.70;;
7156;SDS011;3620;49.862;8.758;2023-02-28T04:28:05;2.10;;;2.00;;
7156;SDS011;3620;49.862;8.758;2023-02-28T04:30:32;1.70;;;1.60;;
7156;SDS011;3620;49.862;8.758;2023-02-28T04:32:59;1.80;;;1.70;;
7156;SDS011;3620;49.862;8.758;2023-02-28T04:35:27;1.93;;;1.83;;
7156;SDS011;3620;49.862;8.758;2023-02-28T04:37:53;1.63;;;1.53;;
7156;SDS011;3620;49.862;8.758;2023-02-28T04:40:21;1.53;;;1.50;;
7156;SDS011;3620;49.862;8.758;2023-02-28T04:42:47;1.90;;;1.80;;
7156;SDS011;3620;49.862;8.758;2023-02-28T04:45:14;1.80;;;1.70;;
7156;SDS011;3620;49.862;8.758;2023-02-28T04:47:42;1.77;;;1.67;;
7156;SDS011;3620;49.862;8.758;2023-02-28T04:50:09;1.77;;;1.67;;
7156;SDS011;3620;49.862;8.758;2023-02-28T04:52:36;1.80;;;1.70;;
7156;SDS011;3620;49.862;8.758;2023-02-28T04:55:03;1.73;;;1.63;;
7156;SDS011;3620;49.862;8.758;2023-02-28T04:57:31;2.00;;;1.90;;
7156;SDS011;3620;49.862;8.758;2023-02-28T04:59:58;1.80;;;1.70;;
7156;SDS011;3620;49.862;8.758;2023-02-28T05:02:25;1.80;;;1.70;;
7156;SDS011;3620;49.862;8.758;2023-02-28T05:04:51;1.90;;;1.80;;
7156;SDS011;3620;49.862;8.758;2023-02-28T05:07:17;1.80;;;1.70;;
7156;SDS011;3620;49.862;8.758;2023-02-28T05:09:44;1.77;;;1.67;;
7156;SDS011;3620;49.862;8.758;2023-02-28T05:12:11;2.03;;;1.93;;
7156;SDS011;3620;49.862;8.758;2023-02-28T05:14:39;2.00;;;1.90;;
7156;SDS011;3620;49.862;8.758;2023-02-28T05:17:05;1.80;;;1.70;;
7156;SDS011;3620;49.862;8.758;2023-02-28T05:19:32;1.70;;;1.60;;
7156;SDS011;3620;49.862;8.758;2023-02-28T05:21:58;1.70;;;1.60;;
7156;SDS011;3620;49.862;8.758;2023-02-28T05:24:25;1.80;;;1.70;;
7156;SDS011;3620;49.862;8.758;2023-02-28T05:26:52;1.90;;;1.80;;
7156;SDS011;3620;49.862;8.758;2023-02-28T05:29:20;1.83;;;1.73;;
7156;SDS011;3620;49.862;8.758;2023-02-28T05:31:48;1.73;;;1.63;;
7156;SDS011;3620;49.862;8.758;2023-02-28T05:34:15;2.00;;;1.90;;
7156;SDS011;3620;49.862;8.758;2023-02-28T05:36:41;1.97;;;1.87;;
7156;SDS011;3620;49.862;8.758;2023-02-28T05:39:08;1.97;;;1.87;;
7156;SDS011;3620;49.862;8.758;2023-02-28T05:41:38;2.07;;;1.97;;
7156;SDS011;3620;49.862;8.758;2023-02-28T05:44:05;1.80;;;1.70;;
7156;SDS011;3620;49.862;8.758;2023-02-28T05:46:32;2.10;;;2.00;;
7156;SDS011;3620;49.862;8.758;2023-02-28T05:49:00;1.70;;;1.60;;
7156;SDS011;3620;49.862;8.758;2023-02-28T05:51:26;1.80;;;1.70;;
7156;SDS011;3620;49.862;8.758;2023-02-28T05:53:53;1.80;;;1.70;;
7156;SDS011;3620;49.862;8.758;2023-02-28T05:56:20;1.90;;;1.80;;
7156;SDS011;3620;49.862;8.758;2023-02-28T05:58:46;1.70;;;1.60;;
7156;SDS011;3620;49.862;8.758;2023-02-28T06:01:21;1.90;;;1.80;;
7156;SDS011;3620;49.862;8.758;2023-02-28T06:03:49;1.90;;;1.80;;
7156;SDS011;3620;49.862;8.758;2023-02-28T06:06:17;1.90;;;1.80;;
7156;SDS011;3620;49.862;8.758;2023-02-28T06:08:44;2.00;;;1.90;;
7156;SDS011;3620;49.862;8.758;2023-02-28T06:11:11;1.90;;;1.80;;
7156;SDS011;3620;49.862;8.758;2023-02-28T06:13:38;2.00;;;1.90;;
7156;SDS011;3620;49.862;8.758;2023-02-28T06:16:05;2.00;;;1.90;;
7156;SDS011;3620;49.862;8.758;2023-02-28T06:18:32;1.83;;;1.73;;
7156;SDS011;3620;49.862;8.758;2023-02-28T06:20:58;1.80;;;1.70;;
7156;SDS011;3620;49.862;8.758;2023-02-28T06:23:26;2.00;;;1.90;;
7156;SDS011;3620;49.862;8.758;2023-02-28T06:25:53;1.90;;;1.80;;
7156;SDS011;3620;49.862;8.758;2023-02-28T06:28:23;1.80;;;1.70;;
7156;SDS011;3620;49.862;8.758;2023-02-28T06:30:50;1.80;;;1.70;;
7156;SDS011;3620;49.862;8.758;2023-02-28T06:33:16;1.73;;;1.63;;
7156;SDS011;3620;49.862;8.758;2023-02-28T06:35:43;1.90;;;1.80;;
7156;SDS011;3620;49.862;8.758;2023-02-28T06:38:10;2.00;;;1.90;;
7156;SDS011;3620;49.862;8.758;2023-02-28T06:40:38;2.00;;;1.90;;
7156;SDS011;3620;49.862;8.758;2023-02-28T06:43:04;2.00;;;1.90;;
7156;SDS011;3620;49.862;8.758;2023-02-28T06:45:31;1.87;;;1.77;;
7156;SDS011;3620;49.862;8.758;2023-02-28T06:47:58;1.53;;;1.50;;
7156;SDS011;3620;49.862;8.758;2023-02-28T06:50:25;1.80;;;1.70;;
7156;SDS011;3620;49.862;8.758;2023-02-28T06:52:54;1.90;;;1.80;;
7156;SDS011;3620;49.862;8.758;2023-02-28T06:55:20;2.00;;;1.90;;
7156;SDS011;3620;49.862;8.758;2023-02-28T06:57:48;1.70;;;1.60;;
7156;SDS011;3620;49.862;8.758;2023-02-28T07:00:16;1.50;;;1.50;;
7156;SDS011;3620;49.862;8.758;2023-02-28T07:02:43;1.90;;;1.80;;
7156;SDS011;3620;49.862;8.758;2023-02-28T07:05:09;1.70;;;1.60;;
7156;SDS011;3620;49.862;8.758;2023-02-28T07:07:36;1.60;;;1.50;;
7156;SDS011;3620;49.862;8.758;2023-02-28T07:10:05;1.57;;;1.50;;
7156;SDS011;3620;49.862;8.758;2023-02-28T07:12:32;1.80;;;1.70;;
7156;SDS011;3620;49.862;8.758;2023-02-28T07:15:00;1.80;;;1.70;;
7156;SDS011;3620;49.862;8.758;2023-02-28T07:17:27;1.83;;;1.73;;
7156;SDS011;3620;49.862;8.758;2023-02-28T07:19:53;1.90;;;1.80;;
7156;SDS011;3620;49.862;8.758;2023-02-28T07:22:20;1.87;;;1.77;;
7156;SDS011;3620;49.862;8.758;2023-02-28T07:24:46;1.70;;;1.60;;
7156;SDS011;3620;49.862;8.758;2023-02-28T07:27:13;1.80;;;1.70;;
7156;SDS011;3620;49.862;8.758;2023-02-28T07:29:50;1.90;;;1.80;;
7156;SDS011;3620;49.862;8.758;2023-02-28T07:32:18;1.93;;;1.83;;
7156;SDS011;3620;49.862;8.758;2023-02-28T07:34:45;1.90;;;1.80;;
7156;SDS011;3620;49.862;8.758;2023-02-28T07:37:12;1.87;;;1.77;;
7156;SDS011;3620;49.862;8.758;2023-02-28T07:39:38;1.73;;;1.63;;
7156;SDS011;3620;49.862;8.758;2023-02-28T07:42:06;1.70;;;1.60;;
7156;SDS011;3620;49.862;8.758;2023-02-28T07:44:35;2.00;;;1.90;;
7156;SDS011;3620;49.862;8.758;2023-02-28T07:47:05;1.77;;;1.67;;
7156;SDS011;3620;49.862;8.758;2023-02-28T07:49:33;1.73;;;1.63;;
7156;SDS011;3620;49.862;8.758;2023-02-28T07:52:00;1.90;;;1.80;;
7156;SDS011;3620;49.862;8.758;2023-02-28T07:54:27;1.80;;;1.70;;
7156;SDS011;3620;49.862;8.758;2023-02-28T07:56:53;1.70;;;1.60;;
7156;SDS011;3620;49.862;8.758;2023-02-28T07:59:21;1.87;;;1.77;;
7156;SDS011;3620;49.862;8.758;2023-02-28T08:01:47;1.70;;;1.60;;
7156;SDS011;3620;49.862;8.758;2023-02-28T08:04:15;1.80;;;1.70;;
7156;SDS011;3620;49.862;8.758;2023-02-28T08:06:43;1.70;;;1.60;;
7156;SDS011;3620;49.862;8.758;2023-02-28T08:09:10;1.80;;;1.70;;
7156;SDS011;3620;49.862;8.758;2023-02-28T08:11:36;1.57;;;1.50;;
7156;SDS011;3620;49.862;8.758;2023-02-28T08:14:03;1.60;;;1.50;;
7156;SDS011;3620;49.862;8.758;2023-02-28T08:16:29;1.80;;;1.70;;
7156;SDS011;3620;49.862;8.758;2023-02-28T08:18:56;1.80;;;1.70;;
7156;SDS011;3620;49.862;8.758;2023-02-28T08:21:22;1.70;;;1.60;;
7156;SDS011;3620;49.862;8.758;2023-02-28T08:23:50;1.80;;;1.70;;
7156;SDS011;3620;49.862;8.758;2023-02-28T08:26:17;1.73;;;1.63;;
7156;SDS011;3620;49.862;8.758;2023-02-28T08:28:44;1.70;;;1.60;;
7156;SDS011;3620;49.862;8.758;2023-02-28T08:31:11;1.80;;;1.70;;
7156;SDS011;3620;49.862;8.758;2023-02-28T08:33:39;1.70;;;1.60;;
7156;SDS011;3620;49.862;8.758;2023-02-28T08:36:07;1.43;;;1.43;;
7156;SDS011;3620;49.862;8.758;2023-02-28T08:38:34;1.80;;;1.70;;
7156;SDS011;3620;49.862;8.758;2023-02-28T08:41:03;1.70;;;1.60;;
7156;SDS011;3620;49.862;8.758;2023-02-28T08:43:32;1.70;;;1.60;;
7156;SDS011;3620;49.862;8.758;2023-02-28T08:45:59;1.63;;;1.53;;
7156;SDS011;3620;49.862;8.758;2023-02-28T08:48:26;1.77;;;1.67;;
7156;SDS011;3620;49.862;8.758;2023-02-28T08:50:54;1.70;;;1.60;;
7156;SDS011;3620;49.862;8.758;2023-02-28T08:53:21;1.53;;;1.43;;
7156;SDS011;3620;49.862;8.758;2023-02-28T08:55:55;1.80;;;1.70;;
7156;SDS011;3620;49.862;8.758;2023-02-28T08:58:23;1.80;;;1.70;;
7156;SDS011;3620;49.862;8.758;2023-02-28T09:00:50;1.70;;;1.60;;
7156;SDS011;3620;49.862;8.758;2023-02-28T09:03:16;1.70;;;1.60;;
7156;SDS011;3620;49.862;8.758;2023-02-28T09:05:51;1.40;;;1.40;;
7156;SDS011;3620;49.862;8.758;2023-02-28T09:08:18;1.60;;;1.50;;
7156;SDS011;3620;49.862;8.758;2023-02-28T09:10:44;1.70;;;1.60;;
7156;SDS011;3620;49.862;8.758;2023-02-28T09:13:11;1.63;;;1.53;;
7156;SDS011;3620;49.862;8.758;2023-02-28T09:15:39;1.60;;;1.50;;
7156;SDS011;3620;49.862;8.758;2023-02-28T09:18:06;1.60;;;1.50;;
7156;SDS011;3620;49.862;8.758;2023-02-28T09:20:32;1.80;;;1.70;;
7156;SDS011;3620;49.862;8.758;2023-02-28T09:22:59;1.60;;;1.50;;
7156;SDS011;3620;49.862;8.758;2023-02-28T09:25:25;1.70;;;1.60;;
7156;SDS011;3620;49.862;8.758;2023-02-28T09:27:52;1.60;;;1.50;;
7156;SDS011;3620;49.862;8.758;2023-02-28T09:30:18;1.70;;;1.60;;
7156;SDS011;3620;49.862;8.758;2023-02-28T09:32:46;1.70;;;1.60;;
7156;SDS011;3620;49.862;8.758;2023-02-28T09:35:17;1.60;;;1.50;;
7156;SDS011;3620;49.862;8.758;2023-02-28T09:37:44;1.60;;;1.50;;
7156;SDS011;3620;49.862;8.758;2023-02-28T09:40:11;1.70;;;1.60;;
7156;SDS011;3620;49.862;8.758;2023-02-28T09:42:39;1.50;;;1.40;;
7156;SDS011;3620;49.862;8.758;2023-02-28T09:45:10;1.30;;;1.30;;
7156;SDS011;3620;49.862;8.758;2023-02-28T09:47:44;1.30;;;1.30;;
7156;SDS011;3620;49.862;8.758;2023-02-28T09:50:17;1.60;;;1.50;;
7156;SDS011;3620;49.862;8.758;2023-02-28T09:52:49;1.70;;;1.60;;
7156;SDS011;3620;49.862;8.758;2023-02-28T09:55:19;1.70;;;1.60;;
7156;SDS011;3620;49.862;8.758;2023-02-28T09:57:48;1.60;;;1.50;;
7156;SDS011;3620;49.862;8.758;2023-02-28T10:00:17;1.60;;;1.50;;
7156;SDS011;3620;49.862;8.758;2023-02-28T10:05:50;1.60;;;1.50;;
7156;SDS011;3620;49.862;8.758;2023-02-28T10:08:22;1.37;;;1.37;;
7156;SDS011;3620;49.862;8.758;2023-02-28T10:10:54;1.40;;;1.40;;
7156;SDS011;3620;49.862;8.758;2023-02-28T10:13:24;1.60;;;1.50;;
7156;SDS011;3620;49.862;8.758;2023-02-28T10:15:54;1.60;;;1.50;;
7156;SDS011;3620;49.862;8.758;2023-02-28T10:18:27;1.63;;;1.53;;
7156;SDS011;3620;49.862;8.758;2023-02-28T10:20:59;1.50;;;1.40;;
7156;SDS011;3620;49.862;8.758;2023-02-28T10:23:27;1.60;;;1.50;;
7156;SDS011;3620;49.862;8.758;2023-02-28T10:25:58;1.50;;;1.40;;
7156;SDS011;3620;49.862;8.758;2023-02-28T10:28:26;1.27;;;1.27;;
7156;SDS011;3620;49.862;8.758;2023-02-28T10:30:57;1.50;;;1.40;;
7156;SDS011;3620;49.862;8.758;2023-02-28T10:33:28;1.57;;;1.50;;
7156;SDS011;3620;49.862;8.758;2023-02-28T10:35:56;1.40;;;1.40;;
7156;SDS011;3620;49.862;8.758;2023-02-28T10:38:26;1.20;;;1.20;;
7156;SDS011;3620;49.862;8.758;2023-02-28T10:41:03;1.53;;;1.43;;
7156;SDS011;3620;49.862;8.758;2023-02-28T10:43:34;1.60;;;1.50;;
7156;SDS011;3620;49.862;8.758;2023-02-28T10:46:02;1.43;;;1.40;;
7156;SDS011;3620;49.862;8.758;2023-02-28T10:48:36;1.30;;;1.30;;
7156;SDS011;3620;49.862;8.758;2023-02-28T10:51:05;1.20;;;1.20;;
7156;SDS011;3620;49.862;8.758;2023-02-28T10:53:38;1.40;;;1.40;;
7156;SDS011;3620;49.862;8.758;2023-02-28T10:56:15;1.50;;;1.40;;
7156;SDS011;3620;49.862;8.758;2023-02-28T10:58:52;1.40;;;1.30;;
7156;SDS011;3620;49.862;8.758;2023-02-28T11:01:22;1.30;;;1.30;;
7156;SDS011;3620;49.862;8.758;2023-02-28T11:03:52;1.40;;;1.40;;
7156;SDS011;3620;49.862;8.758;2023-02-28T11:06:20;1.40;;;1.40;;
7156;SDS011;3620;49.862;8.758;2023-02-28T11:08:50;1.40;;;1.40;;
7156;SDS011;3620;49.862;8.758;2023-02-28T11:11:21;1.30;;;1.30;;
7156;SDS011;3620;49.862;8.758;2023-02-28T11:13:51;1.30;;;1.30;;
7156;SDS011;3620;49.862;8.758;2023-02-28T11:16:20;1.30;;;1.30;;
7156;SDS011;3620;49.862;8.758;2023-02-28T11:18:48;1.10;;;1.10;;
7156;SDS011;3620;49.862;8.758;2023-02-28T11:21:22;1.30;;;1.30;;
7156;SDS011;3620;49.862;8.758;2023-02-28T11:23:54;1.30;;;1.30;;
7156;SDS011;3620;49.862;8.758;2023-02-28T11:26:40;1.27;;;1.27;;
7156;SDS011;3620;49.862;8.758;2023-02-28T11:29:12;1.30;;;1.30;;
7156;SDS011;3620;49.862;8.758;2023-02-28T11:31:48;1.47;;;1.40;;
7156;SDS011;3620;49.862;8.758;2023-02-28T11:34:27;1.20;;;1.20;;
7156;SDS011;3620;49.862;8.758;2023-02-28T11:36:56;1.30;;;1.30;;
7156;SDS011;3620;49.862;8.758;2023-02-28T11:39:24;1.10;;;1.10;;
7156;SDS011;3620;49.862;8.758;2023-02-28T11:41:55;1.10;;;1.10;;
7156;SDS011;3620;49.862;8.758;2023-02-28T11:44:43;1.40;;;1.30;;
7156;SDS011;3620;49.862;8.758;2023-02-28T11:47:27;1.50;;;1.40;;
7156;SDS011;3620;49.862;8.758;2023-02-28T11:50:04;1.20;;;1.20;;
7156;SDS011;3620;49.862;8.758;2023-02-28T11:52:45;1.30;;;1.30;;
7156;SDS011;3620;49.862;8.758;2023-02-28T11:55:18;1.30;;;1.30;;
7156;SDS011;3620;49.862;8.758;2023-02-28T12:00:45;1.27;;;1.27;;
7156;SDS011;3620;49.862;8.758;2023-02-28T12:03:31;1.47;;;1.40;;
7156;SDS011;3620;49.862;8.758;2023-02-28T12:06:10;1.20;;;1.20;;
7156;SDS011;3620;49.862;8.758;2023-02-28T12:08:48;1.40;;;1.30;;
7156;SDS011;3620;49.862;8.758;2023-02-28T12:11:27;1.40;;;1.30;;
7156;SDS011;3620;49.862;8.758;2023-02-28T12:16:59;1.30;;;1.30;;
7156;SDS011;3620;49.862;8.758;2023-02-28T12:19:41;1.20;;;1.20;;
7156;SDS011;3620;49.862;8.758;2023-02-28T12:22:28;1.20;;;1.20;;
7156;SDS011;3620;49.862;8.758;2023-02-28T12:28:12;1.30;;;1.30;;
7156;SDS011;3620;49.862;8.758;2023-02-28T12:30:41;1.50;;;1.40;;
7156;SDS011;3620;49.862;8.758;2023-02-28T12:33:14;1.30;;;1.30;;
7156;SDS011;3620;49.862;8.758;2023-02-28T12:35:45;1.30;;;1.30;;
7156;SDS011;3620;49.862;8.758;2023-02-28T12:38:17;1.50;;;1.40;;
7156;SDS011;3620;49.862;8.758;2023-02-28T12:40:50;1.30;;;1.30;;
7156;SDS011;3620;49.862;8.758;2023-02-28T12:43:20;1.30;;;1.30;;
7156;SDS011;3620;49.862;8.758;2023-02-28T12:45:50;1.30;;;1.30;;
7156;SDS011;3620;49.862;8.758;2023-02-28T12:48:20;1.40;;;1.30;;
7156;SDS011;3620;49.862;8.758;2023-02-28T12:50:51;1.20;;;1.20;;
7156;SDS011;3620;49.862;8.758;2023-02-28T12:53:19;1.10;;;1.10;;
7156;SDS011;3620;49.862;8.758;2023-02-28T12:55:54;1.13;;;1.13;;
7156;SDS011;3620;49.862;8.758;2023-02-28T12:58:31;1.20;;;1.20;;
7156;SDS011;3620;49.862;8.758;2023-02-28T13:04:05;1.20;;;1.20;;
7156;SDS011;3620;49.862;8.758;2023-02-28T13:07:24;1.30;;;1.30;;
7156;SDS011;3620;49.862;8.758;2023-02-28T13:10:04;1.30;;;1.30;;
7156;SDS011;3620;49.862;8.758;2023-02-28T13:12:34;1.40;;;1.40;;
7156;SDS011;3620;49.862;8.758;2023-02-28T13:15:02;1.50;;;1.40;;
7156;SDS011;3620;49.862;8.758;2023-02-28T13:17:36;1.30;;;1.30;;
7156;SDS011;3620;49.862;8.758;2023-02-28T13:20:13;1.40;;;1.37;;
7156;SDS011;3620;49.862;8.758;2023-02-28T13:22:43;1.37;;;1.37;;
7156;SDS011;3620;49.862;8.758;2023-02-28T13:31:33;1.20;;;1.20;;
7156;SDS011;3620;49.862;8.758;2023-02-28T13:34:39;1.20;;;1.20;;
7156;SDS011;3620;49.862;8.758;2023-02-28T13:40:27;1.30;;;1.30;;
7156;SDS011;3620;49.862;8.758;2023-02-28T13:42:55;1.17;;;1.17;;
7156;SDS011;3620;49.862;8.758;2023-02-28T13:45:26;1.20;;;1.20;;
7156;SDS011;3620;49.862;8.758;2023-02-28T13:47:56;1.10;;;1.10;;
7156;SDS011;3620;49.862;8.758;2023-02-28T13:50:31;1.10;;;1.10;;
7156;SDS011;3620;49.862;8.758;2023-02-28T13:53:07;1.10;;;1.10;;
7156;SDS011;3620;49.862;8.758;2023-02-28T13:55:57;1.20;;;1.20;;
7156;SDS011;3620;49.862;8.758;2023-02-28T13:58:36;1.23;;;1.23;;
7156;SDS011;3620;49.862;8.758;2023-02-28T14:01:18;1.30;;;1.30;;
7156;SDS011;3620;49.862;8.758;2023-02-28T14:04:03;1.10;;;1.10;;
7156;SDS011;3620;49.862;8.758;2023-02-28T14:06:47;1.30;;;1.30;;
7156;SDS011;3620;49.862;8.758;2023-02-28T14:09:18;1.30;;;1.30;;
7156;SDS011;3620;49.862;8.758;2023-02-28T14:11:50;1.43;;;1.33;;
7156;SDS011;3620;49.862;8.758;2023-02-28T14:17:22;1.20;;;1.20;;
7156;SDS011;3620;49.862;8.758;2023-02-28T14:19:50;1.27;;;1.27;;
7156;SDS011;3620;49.862;8.758;2023-02-28T14:22:21;1.10;;;1.10;;
7156;SDS011;3620;49.862;8.758;2023-02-28T14:25:08;1.30;;;1.30;;
7156;SDS011;3620;49.862;8.758;2023-02-28T14:27:43;1.20;;;1.20;;
7156;SDS011;3620;49.862;8.758;2023-02-28T14:33:20;1.20;;;1.20;;
7156;SDS011;3620;49.862;8.758;2023-02-28T14:36:01;1.20;;;1.20;;
7156;SDS011;3620;49.862;8.758;2023-02-28T14:38:35;1.30;;;1.30;;
7156;SDS011;3620;49.862;8.758;2023-02-28T14:41:06;1.20;;;1.20;;
7156;SDS011;3620;49.862;8.758;2023-02-28T14:43:47;1.20;;;1.20;;
7156;SDS011;3620;49.862;8.758;2023-02-28T14:46:15;1.20;;;1.20;;
7156;SDS011;3620;49.862;8.758;2023-02-28T14:48:44;1.20;;;1.20;;
7156;SDS011;3620;49.862;8.758;2023-02-28T14:51:12;1.20;;;1.20;;
7156;SDS011;3620;49.862;8.758;2023-02-28T14:53:47;1.30;;;1.30;;
7156;SDS011;3620;49.862;8.758;2023-02-28T14:56:21;1.33;;;1.30;;
7156;SDS011;3620;49.862;8.758;2023-02-28T14:58:53;1.60;;;1.50;;
7156;SDS011;3620;49.862;8.758;2023-02-28T15:01:23;1.20;;;1.20;;
7156;SDS011;3620;49.862;8.758;2023-02-28T15:03:57;1.10;;;1.10;;
7156;SDS011;3620;49.862;8.758;2023-02-28T15:06:26;1.07;;;1.07;;
7156;SDS011;3620;49.862;8.758;2023-02-28T15:09:11;1.13;;;1.13;;
7156;SDS011;3620;49.862;8.758;2023-02-28T15:11:41;1.27;;;1.27;;
7156;SDS011;3620;49.862;8.758;2023-02-28T15:14:13;1.10;;;1.10;;
7156;SDS011;3620;49.862;8.758;2023-02-28T15:16:46;1.13;;;1.13;;
7156;SDS011;3620;49.862;8.758;2023-02-28T15:19:18;1.17;;;1.17;;
7156;SDS011;3620;49.862;8.758;2023-02-28T15:21:48;1.20;;;1.20;;
7156;SDS011;3620;49.862;8.758;2023-02-28T15:24:20;1.10;;;1.10;;
7156;SDS011;3620;49.862;8.758;2023-02-28T15:26:55;1.10;;;1.10;;
7156;SDS011;3620;49.862;8.758;2023-02-28T15:29:25;1.10;;;1.10;;
7156;SDS011;3620;49.862;8.758;2023-02-28T15:31:55;1.20;;;1.20;;
7156;SDS011;3620;49.862;8.758;2023-02-28T15:34:26;1.20;;;1.20;;
7156;SDS011;3620;49.862;8.758;2023-02-28T15:36:58;1.40;;;1.40;;
7156;SDS011;3620;49.862;8.758;2023-02-28T15:39:27;1.10;;;1.10;;
7156;SDS011;3620;49.862;8.758;2023-02-28T15:42:09;1.20;;;1.20;;
7156;SDS011;3620;49.862;8.758;2023-02-28T15:44:36;1.20;;;1.20;;
7156;SDS011;3620;49.862;8.758;2023-02-28T15:47:04;1.10;;;1.10;;
7156;SDS011;3620;49.862;8.758;2023-02-28T15:49:35;1.20;;;1.20;;
7156;SDS011;3620;49.862;8.758;2023-02-28T15:52:06;1.30;;;1.27;;
7156;SDS011;3620;49.862;8.758;2023-02-28T15:54:41;1.20;;;1.20;;
7156;SDS011;3620;49.862;8.758;2023-02-28T15:57:10;1.10;;;1.10;;
7156;SDS011;3620;49.862;8.758;2023-02-28T15:59:42;1.03;;;1.03;;
7156;SDS011;3620;49.862;8.758;2023-02-28T16:02:16;1.00;;;1.00;;
7156;SDS011;3620;49.862;8.758;2023-02-28T16:04:54;1.20;;;1.20;;
7156;SDS011;3620;49.862;8.758;2023-02-28T16:07:25;1.20;;;1.20;;
7156;SDS011;3620;49.862;8.758;2023-02-28T16:09:54;1.20;;;1.20;;
7156;SDS011;3620;49.862;8.758;2023-02-28T16:12:22;1.00;;;1.00;;
7156;SDS011;3620;49.862;8.758;2023-02-28T16:14:53;1.20;;;1.20;;